createdAt,value
2022-09-12T00:05:23.223Z,3728.96143
2022-09-12T00:20:25.432Z,3194.86792
2022-09-12T00:35:27.643Z,1569.32373
2022-09-12T00:50:29.896Z,1131.19263
2022-09-12T01:05:32.175Z,1375.46045
2022-09-12T01:20:34.430Z,577.71277
2022-09-12T01:35:36.693Z,339.26086
2022-09-12T01:50:38.959Z,324.7211
2022-09-12T02:05:41.343Z,62.03627
2022-09-12T02:20:48.559Z,15.50907
2022-09-12T02:35:51.706Z,1.93863
2022-09-12T02:50:54.038Z,0
2022-09-12T03:05:56.284Z,0
2022-09-12T03:20:58.885Z,0
2022-09-12T03:36:01.211Z,0
2022-09-12T03:51:03.679Z,0
2022-09-12T04:06:06.018Z,0
2022-09-12T04:21:08.241Z,0
2022-09-12T04:36:10.532Z,0
2022-09-12T04:51:12.910Z,0
2022-09-12T05:06:15.226Z,0
2022-09-12T05:21:17.482Z,0
2022-09-12T05:36:19.744Z,0
2022-09-12T05:51:22.121Z,0
2022-09-12T06:06:24.350Z,0
2022-09-12T06:21:26.650Z,0
2022-09-12T06:36:29.064Z,0
2022-09-12T06:51:31.398Z,0
2022-09-12T07:06:33.673Z,0
2022-09-12T07:21:35.898Z,0
2022-09-12T07:36:38.160Z,0
2022-09-12T07:51:40.432Z,0
2022-09-12T08:06:42.651Z,0
2022-09-12T08:21:45.065Z,0
2022-09-12T08:36:47.354Z,0
2022-09-12T08:51:49.598Z,0
2022-09-12T09:06:51.806Z,0
2022-09-12T09:21:54.081Z,0
2022-09-12T09:36:56.389Z,0
2022-09-12T09:52:00.553Z,0
2022-09-12T10:07:03.015Z,0
2022-09-12T10:22:05.318Z,0
2022-09-12T10:37:07.557Z,0
2022-09-12T10:52:09.778Z,0
2022-09-12T11:07:12.270Z,0
2022-09-12T11:22:14.712Z,0
2022-09-12T11:37:18.208Z,0
2022-09-12T11:52:20.499Z,0
2022-09-12T12:07:22.718Z,0
2022-09-12T12:22:25.186Z,0
2022-09-12T12:37:27.436Z,0
2022-09-12T12:52:29.724Z,0
2022-09-12T13:07:32.139Z,1.93863
2022-09-12T13:22:34.352Z,9.69317
2022-09-12T13:37:36.618Z,43.61925
2022-09-12T13:52:38.946Z,93.05441
2022-09-12T14:07:41.330Z,132.79639
2022-09-12T14:22:43.542Z,468.17996
2022-09-12T14:37:45.811Z,267.5314
2022-09-12T14:52:48.097Z,263.65414
2022-09-12T15:07:50.548Z,330.53699
2022-09-12T15:22:52.768Z,762.85223
2022-09-12T15:37:55.165Z,820.04193
2022-09-12T15:52:57.395Z,1326.99463
2022-09-12T16:07:59.697Z,1335.71838
2022-09-12T16:23:02.110Z,671.73651
2022-09-12T16:38:04.784Z,833.61237
2022-09-12T16:53:07.059Z,891.77136
2022-09-12T17:08:09.336Z,782.23859
2022-09-12T17:23:11.720Z,1760.27917
2022-09-12T17:38:18.050Z,2549.30298
2022-09-12T17:53:21.694Z,1408.41724
2022-09-12T18:08:23.902Z,2174.17749
2022-09-12T18:23:26.067Z,2642.35742
2022-09-12T18:38:28.264Z,3235.5791
2022-09-12T18:53:30.457Z,1921.18579
2022-09-12T19:08:32.737Z,2088.87744
2022-09-12T19:23:35.037Z,2984.52612
2022-09-12T19:38:37.277Z,2196.47168
2022-09-12T19:53:39.468Z,2325.39087
2022-09-12T20:08:41.763Z,1865.93469
2022-09-12T20:23:43.987Z,3155.12598
2022-09-12T20:38:46.321Z,2747.0437
2022-09-12T20:53:48.727Z,2585.16772
2022-09-12T21:08:51.080Z,3039.77734
2022-09-12T21:23:53.278Z,3829.77026
2022-09-12T21:38:55.544Z,2047.1969
2022-09-12T21:53:57.789Z,2497.9292
2022-09-12T22:08:59.966Z,1649.7771
2022-09-12T22:24:02.336Z,1573.20105
2022-09-12T22:39:04.575Z,1372.55249
2022-09-12T22:54:06.780Z,1644.93042
2022-09-12T23:09:09.114Z,960.5929
2022-09-12T23:24:11.345Z,727.95685
2022-09-12T23:39:13.544Z,563.17303
2022-09-12T23:54:15.791Z,996.45758
